Airfield :
LOGIN :

Register | Disclaimer

   EN    FR    IT 

 










Legend :    VFR   Marginal VFR   IFR   Intensive IFR   Very Intensive IFR
Visi :
Ceiling :
>= 8 km
>= 3000ft
5 to 8 km
1000 to 3000 ft
1500m to 5 km
500 to 1000 ft
800 to 1500m
200 to 500 ft
< 800m
< 200 ft
Symbols :   Thunderstorms  Fog  Heavy snow  Heavy precipitations  Wind > 20 kt
SIGMETs :     Misc.  Thunderstorms  Icing  Turbulence  Mountain Waves  Volcanic Ashes







- Airport Elevation : 42 ft
- IATA code : KGD


UMKK - Khrabrava - Kaliningrad

CURRENT METAR :
  • 151600Z 14004MPS 9000 NSC 14/09 Q1020 R24/CLRD60 NOSIG RMK QFE764/1019

EXPIRED METARs :
  • 151530Z 14003MPS CAVOK 15/10 Q1020 R24/60D NOSIG RMK QFE764/1019
  • 151500Z 14003MPS CAVOK 17/10 Q1020 R24/60D NOSIG RMK QFE764/1019
  • 151430Z 14004MPS CAVOK 18/10 Q1020 R24/60D NOSIG RMK QFE764/1019
  • 151400Z 14004MPS CAVOK 19/11 Q1020 R24/CLRD60 NOSIG RMK QFE764/1019
  • 151330Z 14004MPS CAVOK 20/10 Q1021 R24/60D NOSIG RMK QFE764/1019

TAF TAF UMKK
Valid from the 15 at 15:00 until the 16 at 15:00 UTC


151358Z 1515/1615 14005MPS CAVOK
TEMPO 1515/1518 12005G10MPS
BECMG 1521/1523 17005MPS
BECMG 1608/1610 18003G08MPS



MET'MAP, your aeronautical weather chart ! - Copyright ORBIFLY December 2007 - Disclaimer

ORBIFLY MET'MAP TEAM :

Programming & Development : Alexandra Zaïnal
Concept & Development : Baudouin d'Aumeries
Co-Development & Prog : Marc-Olivier Méhu
Technical & hardware support : Manuel Goepfert

Contact : metmap@orbifly.com




SOURCES & CREDITS :

   NOAA